sensor_id;sensor_type;location;lat;lon;timestamp;temperature;humidity
36552;DHT22;22559;54.176;12.102;2024-02-04T00:00:23;6.40;99.90
36552;DHT22;22559;54.176;12.102;2024-02-04T00:02:48;6.40;99.90
36552;DHT22;22559;54.176;12.102;2024-02-04T00:05:14;6.50;99.90
36552;DHT22;22559;54.176;12.102;2024-02-04T00:07:39;6.50;99.90
36552;DHT22;22559;54.176;12.102;2024-02-04T00:10:05;6.60;99.90
36552;DHT22;22559;54.176;12.102;2024-02-04T00:12:31;6.60;99.90
36552;DHT22;22559;54.176;12.102;2024-02-04T00:14:57;6.60;99.90
36552;DHT22;22559;54.176;12.102;2024-02-04T00:17:22;6.60;99.90
36552;DHT22;22559;54.176;12.102;2024-02-04T00:19:48;6.60;99.90
36552;DHT22;22559;54.176;12.102;2024-02-04T00:22:14;6.70;99.90
36552;DHT22;22559;54.176;12.102;2024-02-04T00:24:42;6.70;99.90
36552;DHT22;22559;54.176;12.102;2024-02-04T00:27:08;6.70;99.90
36552;DHT22;22559;54.176;12.102;2024-02-04T00:29:34;6.70;99.90
36552;DHT22;22559;54.176;12.102;2024-02-04T00:31:59;6.70;99.90
36552;DHT22;22559;54.176;12.102;2024-02-04T00:34:25;6.70;99.90
36552;DHT22;22559;54.176;12.102;2024-02-04T00:36:50;6.70;99.90
36552;DHT22;22559;54.176;12.102;2024-02-04T00:39:16;6.70;99.90
36552;DHT22;22559;54.176;12.102;2024-02-04T00:41:42;6.70;99.90
36552;DHT22;22559;54.176;12.102;2024-02-04T00:44:07;6.60;99.90
36552;DHT22;22559;54.176;12.102;2024-02-04T00:46:33;6.70;99.90
36552;DHT22;22559;54.176;12.102;2024-02-04T00:48:58;6.70;99.90
36552;DHT22;22559;54.176;12.102;2024-02-04T00:51:24;6.80;99.90
36552;DHT22;22559;54.176;12.102;2024-02-04T00:53:50;6.80;99.90
36552;DHT22;22559;54.176;12.102;2024-02-04T00:56:16;6.80;99.90
36552;DHT22;22559;54.176;12.102;2024-02-04T00:58:41;6.90;99.90
36552;DHT22;22559;54.176;12.102;2024-02-04T01:01:07;6.90;99.90
36552;DHT22;22559;54.176;12.102;2024-02-04T01:03:33;6.90;99.90
36552;DHT22;22559;54.176;12.102;2024-02-04T01:05:58;6.90;99.90
36552;DHT22;22559;54.176;12.102;2024-02-04T01:08:24;6.90;99.90
36552;DHT22;22559;54.176;12.102;2024-02-04T01:10:50;6.90;99.90
36552;DHT22;22559;54.176;12.102;2024-02-04T01:13:18;6.90;99.90
36552;DHT22;22559;54.176;12.102;2024-02-04T01:15:44;6.90;99.90
36552;DHT22;22559;54.176;12.102;2024-02-04T01:18:10;6.90;99.90
36552;DHT22;22559;54.176;12.102;2024-02-04T01:20:35;7.00;99.90
36552;DHT22;22559;54.176;12.102;2024-02-04T01:23:01;6.90;99.90
36552;DHT22;22559;54.176;12.102;2024-02-04T01:25:27;6.90;99.90
36552;DHT22;22559;54.176;12.102;2024-02-04T01:27:52;7.00;99.90
36552;DHT22;22559;54.176;12.102;2024-02-04T01:30:18;7.00;99.90
36552;DHT22;22559;54.176;12.102;2024-02-04T01:32:44;6.90;99.90
36552;DHT22;22559;54.176;12.102;2024-02-04T01:35:10;6.90;99.90
36552;DHT22;22559;54.176;12.102;2024-02-04T01:37:36;6.90;99.90
36552;DHT22;22559;54.176;12.102;2024-02-04T01:40:01;6.90;99.90
36552;DHT22;22559;54.176;12.102;2024-02-04T01:42:27;6.90;99.90
36552;DHT22;22559;54.176;12.102;2024-02-04T01:44:53;6.90;99.90
36552;DHT22;22559;54.176;12.102;2024-02-04T01:47:18;6.80;99.90
36552;DHT22;22559;54.176;12.102;2024-02-04T01:49:45;6.80;99.90
36552;DHT22;22559;54.176;12.102;2024-02-04T01:52:12;6.80;99.90
36552;DHT22;22559;54.176;12.102;2024-02-04T01:54:40;6.80;99.90
36552;DHT22;22559;54.176;12.102;2024-02-04T01:57:07;6.80;99.90
36552;DHT22;22559;54.176;12.102;2024-02-04T01:59:34;6.70;99.90
36552;DHT22;22559;54.176;12.102;2024-02-04T02:02:01;6.70;99.90
36552;DHT22;22559;54.176;12.102;2024-02-04T02:04:27;6.70;99.90
36552;DHT22;22559;54.176;12.102;2024-02-04T02:06:54;6.70;99.90
36552;DHT22;22559;54.176;12.102;2024-02-04T02:09:20;6.70;99.90
36552;DHT22;22559;54.176;12.102;2024-02-04T02:11:51;6.80;99.90
36552;DHT22;22559;54.176;12.102;2024-02-04T02:14:24;6.80;99.90
36552;DHT22;22559;54.176;12.102;2024-02-04T02:16:52;6.80;99.90
36552;DHT22;22559;54.176;12.102;2024-02-04T02:21:56;6.80;99.90
36552;DHT22;22559;54.176;12.102;2024-02-04T02:26:54;6.70;99.90
36552;DHT22;22559;54.176;12.102;2024-02-04T02:29:22;6.70;99.90
36552;DHT22;22559;54.176;12.102;2024-02-04T02:31:48;6.70;99.90
36552;DHT22;22559;54.176;12.102;2024-02-04T02:34:13;6.70;99.90
36552;DHT22;22559;54.176;12.102;2024-02-04T02:37:50;6.70;99.90
36552;DHT22;22559;54.176;12.102;2024-02-04T02:40:00;6.70;99.90
36552;DHT22;22559;54.176;12.102;2024-02-04T02:42:27;6.70;99.90
36552;DHT22;22559;54.176;12.102;2024-02-04T02:44:54;6.70;99.90
36552;DHT22;22559;54.176;12.102;2024-02-04T02:47:22;6.80;99.90
36552;DHT22;22559;54.176;12.102;2024-02-04T02:49:51;6.80;99.90
36552;DHT22;22559;54.176;12.102;2024-02-04T02:52:18;6.80;99.90
36552;DHT22;22559;54.176;12.102;2024-02-04T02:54:43;6.80;99.90
36552;DHT22;22559;54.176;12.102;2024-02-04T02:57:09;6.80;99.90
36552;DHT22;22559;54.176;12.102;2024-02-04T02:59:34;6.90;99.90
36552;DHT22;22559;54.176;12.102;2024-02-04T03:02:00;6.90;99.90
36552;DHT22;22559;54.176;12.102;2024-02-04T03:04:26;6.90;99.90
36552;DHT22;22559;54.176;12.102;2024-02-04T03:06:51;7.00;99.90
36552;DHT22;22559;54.176;12.102;2024-02-04T03:09:17;7.00;99.90
36552;DHT22;22559;54.176;12.102;2024-02-04T03:11:42;7.00;99.90
36552;DHT22;22559;54.176;12.102;2024-02-04T03:14:08;7.10;99.90
36552;DHT22;22559;54.176;12.102;2024-02-04T03:16:34;7.00;99.90
36552;DHT22;22559;54.176;12.102;2024-02-04T03:18:59;7.10;99.90
36552;DHT22;22559;54.176;12.102;2024-02-04T03:21:25;7.10;99.90
36552;DHT22;22559;54.176;12.102;2024-02-04T03:23:50;7.10;99.90
36552;DHT22;22559;54.176;12.102;2024-02-04T03:26:17;7.10;99.90
36552;DHT22;22559;54.176;12.102;2024-02-04T03:28:45;7.10;99.90
36552;DHT22;22559;54.176;12.102;2024-02-04T03:31:11;7.10;99.90
36552;DHT22;22559;54.176;12.102;2024-02-04T03:33:37;7.10;99.90
36552;DHT22;22559;54.176;12.102;2024-02-04T03:36:02;7.10;99.90
36552;DHT22;22559;54.176;12.102;2024-02-04T03:38:28;7.10;99.90
36552;DHT22;22559;54.176;12.102;2024-02-04T03:40:54;7.10;99.90
36552;DHT22;22559;54.176;12.102;2024-02-04T03:43:20;7.10;99.90
36552;DHT22;22559;54.176;12.102;2024-02-04T03:45:45;7.10;99.90
36552;DHT22;22559;54.176;12.102;2024-02-04T03:48:11;7.10;99.90
36552;DHT22;22559;54.176;12.102;2024-02-04T03:50:37;7.10;99.90
36552;DHT22;22559;54.176;12.102;2024-02-04T03:53:03;7.10;99.90
36552;DHT22;22559;54.176;12.102;2024-02-04T03:55:28;7.10;99.90
36552;DHT22;22559;54.176;12.102;2024-02-04T03:57:55;7.10;99.90
36552;DHT22;22559;54.176;12.102;2024-02-04T04:00:22;7.20;99.90
36552;DHT22;22559;54.176;12.102;2024-02-04T04:02:48;7.20;99.90
36552;DHT22;22559;54.176;12.102;2024-02-04T04:05:13;7.20;99.90
36552;DHT22;22559;54.176;12.102;2024-02-04T04:07:40;7.20;99.90
36552;DHT22;22559;54.176;12.102;2024-02-04T04:10:06;7.20;99.90
36552;DHT22;22559;54.176;12.102;2024-02-04T04:12:31;7.30;99.90
36552;DHT22;22559;54.176;12.102;2024-02-04T04:14:57;7.30;99.90
36552;DHT22;22559;54.176;12.102;2024-02-04T04:17:23;7.20;99.90
36552;DHT22;22559;54.176;12.102;2024-02-04T04:19:48;7.20;99.90
36552;DHT22;22559;54.176;12.102;2024-02-04T04:22:14;7.20;99.90
36552;DHT22;22559;54.176;12.102;2024-02-04T04:24:40;7.20;99.90
36552;DHT22;22559;54.176;12.102;2024-02-04T04:27:05;7.20;99.90
36552;DHT22;22559;54.176;12.102;2024-02-04T04:29:31;7.20;99.90
36552;DHT22;22559;54.176;12.102;2024-02-04T04:31:56;7.20;99.90
36552;DHT22;22559;54.176;12.102;2024-02-04T04:34:22;7.20;99.90
36552;DHT22;22559;54.176;12.102;2024-02-04T04:36:48;7.30;99.90
36552;DHT22;22559;54.176;12.102;2024-02-04T04:39:13;7.30;99.90
36552;DHT22;22559;54.176;12.102;2024-02-04T04:41:44;7.30;99.90
36552;DHT22;22559;54.176;12.102;2024-02-04T04:44:10;7.30;99.90
36552;DHT22;22559;54.176;12.102;2024-02-04T04:46:39;7.30;99.90
36552;DHT22;22559;54.176;12.102;2024-02-04T04:49:05;7.30;99.90
36552;DHT22;22559;54.176;12.102;2024-02-04T04:51:31;7.30;99.90
36552;DHT22;22559;54.176;12.102;2024-02-04T04:53:56;7.30;99.90
36552;DHT22;22559;54.176;12.102;2024-02-04T04:56:22;7.30;99.90
36552;DHT22;22559;54.176;12.102;2024-02-04T04:58:48;7.30;99.90
36552;DHT22;22559;54.176;12.102;2024-02-04T05:01:15;7.30;99.90
36552;DHT22;22559;54.176;12.102;2024-02-04T05:03:40;7.30;99.90
36552;DHT22;22559;54.176;12.102;2024-02-04T05:06:06;7.30;99.90
36552;DHT22;22559;54.176;12.102;2024-02-04T05:08:32;7.30;99.90
36552;DHT22;22559;54.176;12.102;2024-02-04T05:10:57;7.30;99.90
36552;DHT22;22559;54.176;12.102;2024-02-04T05:13:23;7.30;99.90
36552;DHT22;22559;54.176;12.102;2024-02-04T05:15:48;7.30;99.90
36552;DHT22;22559;54.176;12.102;2024-02-04T05:18:14;7.30;99.90
36552;DHT22;22559;54.176;12.102;2024-02-04T05:20:40;7.30;99.90
36552;DHT22;22559;54.176;12.102;2024-02-04T05:23:05;7.40;99.90
36552;DHT22;22559;54.176;12.102;2024-02-04T05:25:31;7.40;99.90
36552;DHT22;22559;54.176;12.102;2024-02-04T05:27:57;7.40;99.90
36552;DHT22;22559;54.176;12.102;2024-02-04T05:30:22;7.50;99.90
36552;DHT22;22559;54.176;12.102;2024-02-04T05:32:48;7.50;99.90
36552;DHT22;22559;54.176;12.102;2024-02-04T05:35:13;7.50;99.90
36552;DHT22;22559;54.176;12.102;2024-02-04T05:37:39;7.50;99.90
36552;DHT22;22559;54.176;12.102;2024-02-04T05:40:05;7.50;99.90
36552;DHT22;22559;54.176;12.102;2024-02-04T05:42:31;7.50;99.90
36552;DHT22;22559;54.176;12.102;2024-02-04T05:44:58;7.50;99.90
36552;DHT22;22559;54.176;12.102;2024-02-04T05:47:23;7.50;99.90
36552;DHT22;22559;54.176;12.102;2024-02-04T05:49:49;7.50;99.90
36552;DHT22;22559;54.176;12.102;2024-02-04T05:52:15;7.50;99.90
36552;DHT22;22559;54.176;12.102;2024-02-04T05:54:41;7.40;99.90
36552;DHT22;22559;54.176;12.102;2024-02-04T05:57:07;7.50;99.90
36552;DHT22;22559;54.176;12.102;2024-02-04T05:59:33;7.50;99.90
36552;DHT22;22559;54.176;12.102;2024-02-04T06:01:59;7.40;99.90
36552;DHT22;22559;54.176;12.102;2024-02-04T06:04:24;7.40;99.90
36552;DHT22;22559;54.176;12.102;2024-02-04T06:06:50;7.50;99.90
36552;DHT22;22559;54.176;12.102;2024-02-04T06:09:16;7.50;99.90
36552;DHT22;22559;54.176;12.102;2024-02-04T06:11:45;7.50;99.90
36552;DHT22;22559;54.176;12.102;2024-02-04T06:14:11;7.50;99.90
36552;DHT22;22559;54.176;12.102;2024-02-04T06:16:37;7.50;99.90
36552;DHT22;22559;54.176;12.102;2024-02-04T06:19:03;7.50;99.90
36552;DHT22;22559;54.176;12.102;2024-02-04T06:21:28;7.50;99.90
36552;DHT22;22559;54.176;12.102;2024-02-04T06:23:54;7.50;99.90
36552;DHT22;22559;54.176;12.102;2024-02-04T06:26:20;7.50;99.90
36552;DHT22;22559;54.176;12.102;2024-02-04T06:28:45;7.50;99.90
36552;DHT22;22559;54.176;12.102;2024-02-04T06:31:13;7.50;99.90
36552;DHT22;22559;54.176;12.102;2024-02-04T06:33:38;7.50;99.90
36552;DHT22;22559;54.176;12.102;2024-02-04T06:36:09;7.50;99.90
36552;DHT22;22559;54.176;12.102;2024-02-04T06:38:35;7.50;99.90
36552;DHT22;22559;54.176;12.102;2024-02-04T06:41:01;7.50;99.90
36552;DHT22;22559;54.176;12.102;2024-02-04T06:43:26;7.50;99.90
36552;DHT22;22559;54.176;12.102;2024-02-04T06:45:52;7.50;99.90
36552;DHT22;22559;54.176;12.102;2024-02-04T06:48:21;7.50;99.90
36552;DHT22;22559;54.176;12.102;2024-02-04T06:50:46;7.50;99.90
36552;DHT22;22559;54.176;12.102;2024-02-04T06:53:13;7.50;99.90
36552;DHT22;22559;54.176;12.102;2024-02-04T06:55:39;7.50;99.90
36552;DHT22;22559;54.176;12.102;2024-02-04T06:58:05;7.40;99.90
36552;DHT22;22559;54.176;12.102;2024-02-04T07:00:30;7.50;99.90
36552;DHT22;22559;54.176;12.102;2024-02-04T07:02:56;7.50;99.90
36552;DHT22;22559;54.176;12.102;2024-02-04T07:05:22;7.40;99.90
36552;DHT22;22559;54.176;12.102;2024-02-04T07:07:48;7.40;99.90
36552;DHT22;22559;54.176;12.102;2024-02-04T07:10:15;7.40;99.90
36552;DHT22;22559;54.176;12.102;2024-02-04T07:12:41;7.40;99.90
36552;DHT22;22559;54.176;12.102;2024-02-04T07:15:06;7.40;99.90
36552;DHT22;22559;54.176;12.102;2024-02-04T07:17:34;7.40;99.90
36552;DHT22;22559;54.176;12.102;2024-02-04T07:20:00;7.40;99.90
36552;DHT22;22559;54.176;12.102;2024-02-04T07:22:26;7.40;99.90
36552;DHT22;22559;54.176;12.102;2024-02-04T07:24:52;7.40;99.90
36552;DHT22;22559;54.176;12.102;2024-02-04T07:27:17;7.40;99.90
36552;DHT22;22559;54.176;12.102;2024-02-04T07:29:43;7.50;99.90
36552;DHT22;22559;54.176;12.102;2024-02-04T07:32:08;7.50;99.90
36552;DHT22;22559;54.176;12.102;2024-02-04T07:34:34;7.50;99.90
36552;DHT22;22559;54.176;12.102;2024-02-04T07:37:00;7.50;99.90
36552;DHT22;22559;54.176;12.102;2024-02-04T07:39:25;7.50;99.90
36552;DHT22;22559;54.176;12.102;2024-02-04T07:41:51;7.50;99.90
36552;DHT22;22559;54.176;12.102;2024-02-04T07:44:19;7.50;99.90
36552;DHT22;22559;54.176;12.102;2024-02-04T07:46:44;7.50;99.90
36552;DHT22;22559;54.176;12.102;2024-02-04T07:49:10;7.50;99.90
36552;DHT22;22559;54.176;12.102;2024-02-04T07:51:36;7.50;99.90
36552;DHT22;22559;54.176;12.102;2024-02-04T07:54:03;7.50;99.90
36552;DHT22;22559;54.176;12.102;2024-02-04T07:56:29;7.50;99.90
36552;DHT22;22559;54.176;12.102;2024-02-04T07:58:54;7.50;99.90
36552;DHT22;22559;54.176;12.102;2024-02-04T08:01:20;7.50;99.90
36552;DHT22;22559;54.176;12.102;2024-02-04T08:03:46;7.60;99.90
36552;DHT22;22559;54.176;12.102;2024-02-04T08:06:12;7.60;99.90
36552;DHT22;22559;54.176;12.102;2024-02-04T08:08:38;7.60;99.90
36552;DHT22;22559;54.176;12.102;2024-02-04T08:11:04;7.60;99.90
36552;DHT22;22559;54.176;12.102;2024-02-04T08:13:29;7.60;99.90
36552;DHT22;22559;54.176;12.102;2024-02-04T08:15:55;7.60;99.90
36552;DHT22;22559;54.176;12.102;2024-02-04T08:18:20;7.60;99.90
36552;DHT22;22559;54.176;12.102;2024-02-04T08:20:46;7.70;99.90
36552;DHT22;22559;54.176;12.102;2024-02-04T08:23:12;7.70;99.90
36552;DHT22;22559;54.176;12.102;2024-02-04T08:25:37;7.70;99.90
36552;DHT22;22559;54.176;12.102;2024-02-04T08:28:03;7.60;99.90
36552;DHT22;22559;54.176;12.102;2024-02-04T08:30:29;7.70;99.90
36552;DHT22;22559;54.176;12.102;2024-02-04T08:32:55;7.70;99.90
36552;DHT22;22559;54.176;12.102;2024-02-04T08:35:20;7.70;99.90
36552;DHT22;22559;54.176;12.102;2024-02-04T08:37:46;7.70;99.90
36552;DHT22;22559;54.176;12.102;2024-02-04T08:40:12;7.70;99.90
36552;DHT22;22559;54.176;12.102;2024-02-04T08:42:37;7.70;99.90
36552;DHT22;22559;54.176;12.102;2024-02-04T08:45:04;7.80;99.90
36552;DHT22;22559;54.176;12.102;2024-02-04T08:47:29;7.70;99.90
36552;DHT22;22559;54.176;12.102;2024-02-04T08:49:55;7.70;99.90
36552;DHT22;22559;54.176;12.102;2024-02-04T08:52:20;7.70;99.90
36552;DHT22;22559;54.176;12.102;2024-02-04T08:54:46;7.70;99.90
36552;DHT22;22559;54.176;12.102;2024-02-04T08:57:12;7.70;99.90
36552;DHT22;22559;54.176;12.102;2024-02-04T08:59:38;7.70;99.90
36552;DHT22;22559;54.176;12.102;2024-02-04T09:02:03;7.70;99.90
36552;DHT22;22559;54.176;12.102;2024-02-04T09:04:29;7.60;99.90
36552;DHT22;22559;54.176;12.102;2024-02-04T09:06:55;7.60;99.90
36552;DHT22;22559;54.176;12.102;2024-02-04T09:09:21;7.70;99.90
36552;DHT22;22559;54.176;12.102;2024-02-04T09:11:46;7.60;99.90
36552;DHT22;22559;54.176;12.102;2024-02-04T09:14:12;7.60;99.90
36552;DHT22;22559;54.176;12.102;2024-02-04T09:16:38;7.70;99.90
36552;DHT22;22559;54.176;12.102;2024-02-04T09:19:05;7.60;99.90
36552;DHT22;22559;54.176;12.102;2024-02-04T09:21:30;7.70;99.90
36552;DHT22;22559;54.176;12.102;2024-02-04T09:23:56;7.60;99.90
36552;DHT22;22559;54.176;12.102;2024-02-04T09:26:23;7.70;99.90
36552;DHT22;22559;54.176;12.102;2024-02-04T09:28:48;7.70;99.90
36552;DHT22;22559;54.176;12.102;2024-02-04T09:31:14;7.60;99.90
36552;DHT22;22559;54.176;12.102;2024-02-04T09:33:40;7.70;99.90
36552;DHT22;22559;54.176;12.102;2024-02-04T09:36:06;7.70;99.90
36552;DHT22;22559;54.176;12.102;2024-02-04T09:38:31;7.70;99.90
36552;DHT22;22559;54.176;12.102;2024-02-04T09:40:57;7.70;99.90
36552;DHT22;22559;54.176;12.102;2024-02-04T09:43:24;7.70;99.90
36552;DHT22;22559;54.176;12.102;2024-02-04T09:45:49;7.70;99.90
36552;DHT22;22559;54.176;12.102;2024-02-04T09:48:18;7.70;99.90
36552;DHT22;22559;54.176;12.102;2024-02-04T09:50:46;7.80;99.90
36552;DHT22;22559;54.176;12.102;2024-02-04T09:53:14;7.70;99.90
36552;DHT22;22559;54.176;12.102;2024-02-04T09:55:40;7.80;99.90
36552;DHT22;22559;54.176;12.102;2024-02-04T09:58:06;7.80;99.90
36552;DHT22;22559;54.176;12.102;2024-02-04T10:00:33;7.80;99.90
36552;DHT22;22559;54.176;12.102;2024-02-04T10:02:59;7.80;99.90
36552;DHT22;22559;54.176;12.102;2024-02-04T10:05:25;7.80;99.90
36552;DHT22;22559;54.176;12.102;2024-02-04T10:07:51;7.80;99.90
36552;DHT22;22559;54.176;12.102;2024-02-04T10:10:16;7.80;99.90
36552;DHT22;22559;54.176;12.102;2024-02-04T10:12:42;7.80;99.90
36552;DHT22;22559;54.176;12.102;2024-02-04T10:15:09;7.80;99.90
36552;DHT22;22559;54.176;12.102;2024-02-04T10:17:35;7.80;99.90
36552;DHT22;22559;54.176;12.102;2024-02-04T10:20:01;7.80;99.90
36552;DHT22;22559;54.176;12.102;2024-02-04T10:22:28;7.80;99.90
36552;DHT22;22559;54.176;12.102;2024-02-04T10:25:04;7.80;99.90
36552;DHT22;22559;54.176;12.102;2024-02-04T10:27:31;7.80;99.90
36552;DHT22;22559;54.176;12.102;2024-02-04T10:29:56;7.80;99.90
36552;DHT22;22559;54.176;12.102;2024-02-04T10:32:22;7.80;99.90
36552;DHT22;22559;54.176;12.102;2024-02-04T10:34:48;7.80;99.90
36552;DHT22;22559;54.176;12.102;2024-02-04T10:37:14;7.80;99.90
36552;DHT22;22559;54.176;12.102;2024-02-04T10:39:39;7.80;99.90
36552;DHT22;22559;54.176;12.102;2024-02-04T10:42:07;7.80;99.90
36552;DHT22;22559;54.176;12.102;2024-02-04T10:44:35;7.80;99.90
36552;DHT22;22559;54.176;12.102;2024-02-04T10:47:05;7.80;99.90
36552;DHT22;22559;54.176;12.102;2024-02-04T10:49:34;7.80;99.90
36552;DHT22;22559;54.176;12.102;2024-02-04T10:52:06;7.80;99.90
36552;DHT22;22559;54.176;12.102;2024-02-04T10:54:34;7.70;99.90
36552;DHT22;22559;54.176;12.102;2024-02-04T10:57:05;7.70;99.90
36552;DHT22;22559;54.176;12.102;2024-02-04T10:59:36;7.70;99.90
36552;DHT22;22559;54.176;12.102;2024-02-04T11:02:04;7.70;99.90
36552;DHT22;22559;54.176;12.102;2024-02-04T11:04:31;7.70;99.90
36552;DHT22;22559;54.176;12.102;2024-02-04T11:06:58;7.70;99.90
36552;DHT22;22559;54.176;12.102;2024-02-04T11:09:26;7.70;99.90
36552;DHT22;22559;54.176;12.102;2024-02-04T11:11:54;7.60;99.90
36552;DHT22;22559;54.176;12.102;2024-02-04T11:14:21;7.70;99.90
36552;DHT22;22559;54.176;12.102;2024-02-04T11:28:10;7.70;99.90
36552;DHT22;22559;54.176;12.102;2024-02-04T11:30:36;7.70;99.90
36552;DHT22;22559;54.176;12.102;2024-02-04T11:33:06;7.70;99.90
36552;DHT22;22559;54.176;12.102;2024-02-04T11:35:32;7.70;99.90
36552;DHT22;22559;54.176;12.102;2024-02-04T11:37:58;7.70;99.90
36552;DHT22;22559;54.176;12.102;2024-02-04T11:40:37;7.70;99.90
36552;DHT22;22559;54.176;12.102;2024-02-04T11:45:31;7.80;99.90
36552;DHT22;22559;54.176;12.102;2024-02-04T11:48:03;7.80;99.90
36552;DHT22;22559;54.176;12.102;2024-02-04T11:50:29;7.80;99.90
36552;DHT22;22559;54.176;12.102;2024-02-04T11:53:12;7.80;99.90
36552;DHT22;22559;54.176;12.102;2024-02-04T11:55:41;7.80;99.90
36552;DHT22;22559;54.176;12.102;2024-02-04T11:58:09;7.90;99.90
36552;DHT22;22559;54.176;12.102;2024-02-04T12:00:36;7.90;99.90
36552;DHT22;22559;54.176;12.102;2024-02-04T12:03:03;7.90;99.90
36552;DHT22;22559;54.176;12.102;2024-02-04T12:05:31;8.00;99.90
36552;DHT22;22559;54.176;12.102;2024-02-04T12:07:58;8.00;99.90
36552;DHT22;22559;54.176;12.102;2024-02-04T12:10:25;8.00;99.90
36552;DHT22;22559;54.176;12.102;2024-02-04T12:12:52;8.00;99.90
36552;DHT22;22559;54.176;12.102;2024-02-04T12:15:18;8.00;99.90
36552;DHT22;22559;54.176;12.102;2024-02-04T12:17:43;8.00;99.90
36552;DHT22;22559;54.176;12.102;2024-02-04T12:20:10;8.00;99.90
36552;DHT22;22559;54.176;12.102;2024-02-04T12:22:36;8.10;99.90
36552;DHT22;22559;54.176;12.102;2024-02-04T12:25:02;8.00;99.90
36552;DHT22;22559;54.176;12.102;2024-02-04T12:27:28;8.00;99.90
36552;DHT22;22559;54.176;12.102;2024-02-04T12:29:54;8.10;99.90
36552;DHT22;22559;54.176;12.102;2024-02-04T12:32:20;8.10;99.90
36552;DHT22;22559;54.176;12.102;2024-02-04T12:34:49;8.00;99.90
36552;DHT22;22559;54.176;12.102;2024-02-04T12:37:19;8.10;99.90
36552;DHT22;22559;54.176;12.102;2024-02-04T12:39:45;8.00;99.90
36552;DHT22;22559;54.176;12.102;2024-02-04T12:42:17;8.10;99.90
36552;DHT22;22559;54.176;12.102;2024-02-04T12:44:48;8.10;99.90
36552;DHT22;22559;54.176;12.102;2024-02-04T12:47:18;8.10;99.90
36552;DHT22;22559;54.176;12.102;2024-02-04T12:49:44;8.10;99.90
36552;DHT22;22559;54.176;12.102;2024-02-04T12:52:09;8.00;99.90
36552;DHT22;22559;54.176;12.102;2024-02-04T12:54:45;8.00;99.90
36552;DHT22;22559;54.176;12.102;2024-02-04T12:57:21;8.00;99.90
36552;DHT22;22559;54.176;12.102;2024-02-04T12:59:47;8.00;99.90
36552;DHT22;22559;54.176;12.102;2024-02-04T13:02:14;8.00;99.90
36552;DHT22;22559;54.176;12.102;2024-02-04T13:04:41;8.00;99.90
36552;DHT22;22559;54.176;12.102;2024-02-04T13:09:38;8.00;99.90
36552;DHT22;22559;54.176;12.102;2024-02-04T13:12:07;8.00;99.90
36552;DHT22;22559;54.176;12.102;2024-02-04T13:14:39;8.10;99.90
36552;DHT22;22559;54.176;12.102;2024-02-04T13:17:05;8.10;99.90
36552;DHT22;22559;54.176;12.102;2024-02-04T13:19:34;8.10;99.90
36552;DHT22;22559;54.176;12.102;2024-02-04T13:22:04;8.10;99.90
36552;DHT22;22559;54.176;12.102;2024-02-04T13:24:33;8.10;99.90
36552;DHT22;22559;54.176;12.102;2024-02-04T13:26:59;8.10;99.90
36552;DHT22;22559;54.176;12.102;2024-02-04T13:29:29;8.10;99.90
36552;DHT22;22559;54.176;12.102;2024-02-04T13:31:55;8.10;99.90
36552;DHT22;22559;54.176;12.102;2024-02-04T13:34:21;8.10;99.90
36552;DHT22;22559;54.176;12.102;2024-02-04T13:36:47;8.10;99.90
36552;DHT22;22559;54.176;12.102;2024-02-04T13:39:13;8.10;99.90
36552;DHT22;22559;54.176;12.102;2024-02-04T13:41:39;8.10;99.90
36552;DHT22;22559;54.176;12.102;2024-02-04T13:44:05;8.10;99.90
36552;DHT22;22559;54.176;12.102;2024-02-04T13:46:31;8.10;99.90
36552;DHT22;22559;54.176;12.102;2024-02-04T13:48:57;8.10;99.90
36552;DHT22;22559;54.176;12.102;2024-02-04T13:51:22;8.10;99.90
36552;DHT22;22559;54.176;12.102;2024-02-04T13:53:48;8.10;99.90
36552;DHT22;22559;54.176;12.102;2024-02-04T13:56:13;8.10;99.90
36552;DHT22;22559;54.176;12.102;2024-02-04T13:58:39;8.10;99.90
36552;DHT22;22559;54.176;12.102;2024-02-04T14:01:05;8.10;99.90
36552;DHT22;22559;54.176;12.102;2024-02-04T14:03:31;8.10;99.90
36552;DHT22;22559;54.176;12.102;2024-02-04T14:05:57;8.10;99.90
36552;DHT22;22559;54.176;12.102;2024-02-04T14:08:23;8.10;99.90
36552;DHT22;22559;54.176;12.102;2024-02-04T14:10:48;8.10;99.90
36552;DHT22;22559;54.176;12.102;2024-02-04T14:13:14;8.10;99.90
36552;DHT22;22559;54.176;12.102;2024-02-04T14:15:40;8.10;99.90
36552;DHT22;22559;54.176;12.102;2024-02-04T14:18:06;8.10;99.90
36552;DHT22;22559;54.176;12.102;2024-02-04T14:20:32;8.10;99.90
36552;DHT22;22559;54.176;12.102;2024-02-04T14:22:58;8.10;99.90
36552;DHT22;22559;54.176;12.102;2024-02-04T14:25:24;8.10;99.90
36552;DHT22;22559;54.176;12.102;2024-02-04T14:27:50;8.10;99.90
36552;DHT22;22559;54.176;12.102;2024-02-04T14:30:16;8.10;99.90
36552;DHT22;22559;54.176;12.102;2024-02-04T14:32:41;8.10;99.90
36552;DHT22;22559;54.176;12.102;2024-02-04T14:35:08;8.10;99.90
36552;DHT22;22559;54.176;12.102;2024-02-04T14:37:38;8.10;99.90
36552;DHT22;22559;54.176;12.102;2024-02-04T14:40:06;8.10;99.90
36552;DHT22;22559;54.176;12.102;2024-02-04T14:42:32;8.10;99.90
36552;DHT22;22559;54.176;12.102;2024-02-04T14:44:58;8.10;99.90
36552;DHT22;22559;54.176;12.102;2024-02-04T14:47:26;8.10;99.90
36552;DHT22;22559;54.176;12.102;2024-02-04T14:49:53;8.00;99.90
36552;DHT22;22559;54.176;12.102;2024-02-04T14:52:18;8.00;99.90
36552;DHT22;22559;54.176;12.102;2024-02-04T14:54:44;7.90;99.90
36552;DHT22;22559;54.176;12.102;2024-02-04T14:57:10;7.90;99.90
36552;DHT22;22559;54.176;12.102;2024-02-04T14:59:35;7.90;99.90
36552;DHT22;22559;54.176;12.102;2024-02-04T15:02:03;7.90;99.90
36552;DHT22;22559;54.176;12.102;2024-02-04T15:04:33;7.90;99.90
36552;DHT22;22559;54.176;12.102;2024-02-04T15:06:59;7.90;99.90
36552;DHT22;22559;54.176;12.102;2024-02-04T15:09:31;7.90;99.90
36552;DHT22;22559;54.176;12.102;2024-02-04T15:11:56;7.80;99.90
36552;DHT22;22559;54.176;12.102;2024-02-04T15:14:22;7.80;99.90
36552;DHT22;22559;54.176;12.102;2024-02-04T15:16:48;7.80;99.90
36552;DHT22;22559;54.176;12.102;2024-02-04T15:19:15;7.90;99.90
36552;DHT22;22559;54.176;12.102;2024-02-04T15:21:41;7.80;99.90
36552;DHT22;22559;54.176;12.102;2024-02-04T15:24:07;7.90;99.90
36552;DHT22;22559;54.176;12.102;2024-02-04T15:26:33;7.80;99.90
36552;DHT22;22559;54.176;12.102;2024-02-04T15:29:03;7.90;99.90
36552;DHT22;22559;54.176;12.102;2024-02-04T15:31:32;7.90;99.90
36552;DHT22;22559;54.176;12.102;2024-02-04T15:34:01;7.90;99.90
36552;DHT22;22559;54.176;12.102;2024-02-04T15:36:29;7.80;99.90
36552;DHT22;22559;54.176;12.102;2024-02-04T15:38:57;7.80;99.90
36552;DHT22;22559;54.176;12.102;2024-02-04T15:41:23;7.80;99.90
36552;DHT22;22559;54.176;12.102;2024-02-04T15:43:49;7.80;99.90
36552;DHT22;22559;54.176;12.102;2024-02-04T15:46:15;7.80;99.90